createdAt,value
2018-02-18T00:01:44.196Z,99.90
2018-02-18T00:04:10.156Z,99.90
2018-02-18T00:06:36.864Z,99.90
2018-02-18T00:09:02.930Z,99.90
2018-02-18T00:11:28.918Z,99.90
2018-02-18T00:13:54.877Z,99.90
2018-02-18T00:16:20.877Z,99.90
2018-02-18T00:18:46.837Z,99.90
2018-02-18T00:21:12.829Z,99.90
2018-02-18T00:23:39.533Z,99.90
2018-02-18T00:26:05.534Z,99.90
2018-02-18T00:28:31.509Z,99.90
2018-02-18T00:30:57.521Z,99.90
2018-02-18T00:33:23.513Z,99.90
2018-02-18T00:35:50.386Z,99.90
2018-02-18T00:38:16.341Z,99.90
2018-02-18T00:40:42.302Z,99.90
2018-02-18T00:43:08.294Z,99.90
2018-02-18T00:45:34.248Z,99.90
2018-02-18T00:48:00.245Z,99.90
2018-02-18T00:50:26.241Z,99.90
2018-02-18T00:52:52.225Z,99.90
2018-02-18T00:55:18.953Z,99.90
2018-02-18T00:57:44.912Z,99.90
2018-02-18T01:00:11.709Z,99.90
2018-02-18T01:02:37.697Z,99.90
2018-02-18T01:05:03.679Z,99.90
2018-02-18T01:07:29.721Z,99.90
2018-02-18T01:09:58.461Z,99.90
2018-02-18T01:12:24.414Z,99.90
2018-02-18T01:14:51.142Z,99.90
2018-02-18T01:17:17.089Z,99.90
2018-02-18T01:19:43.193Z,99.90
2018-02-18T01:22:09.152Z,99.90
2018-02-18T01:24:35.145Z,99.90
2018-02-18T01:27:01.101Z,99.90
2018-02-18T01:29:27.076Z,99.90
2018-02-18T01:31:53.809Z,99.90
2018-02-18T01:34:19.795Z,99.90
2018-02-18T01:36:45.749Z,99.90
2018-02-18T01:39:11.699Z,99.90
2018-02-18T01:41:37.689Z,99.90
2018-02-18T01:44:04.413Z,99.90
2018-02-18T01:46:30.395Z,99.90
2018-02-18T01:48:56.558Z,99.90
2018-02-18T01:51:22.507Z,99.90
2018-02-18T01:53:48.453Z,99.90
2018-02-18T01:56:14.438Z,99.90
2018-02-18T01:58:40.450Z,99.90
2018-02-18T02:01:07.165Z,99.90
2018-02-18T02:03:33.271Z,99.90
2018-02-18T02:05:59.240Z,99.90
2018-02-18T02:08:25.192Z,99.90
2018-02-18T02:10:51.174Z,99.90
2018-02-18T02:13:17.121Z,99.90
2018-02-18T02:15:43.130Z,99.90
2018-02-18T02:18:09.819Z,99.90
2018-02-18T02:20:35.771Z,99.90
2018-02-18T02:23:01.777Z,99.90
2018-02-18T02:25:27.744Z,99.90
2018-02-18T02:27:53.732Z,99.90
2018-02-18T02:30:19.685Z,99.90
2018-02-18T02:32:45.719Z,99.90
2018-02-18T02:35:11.680Z,99.90
2018-02-18T02:37:37.667Z,99.90
2018-02-18T02:40:04.379Z,99.90
2018-02-18T02:42:30.384Z,99.90
2018-02-18T02:44:56.330Z,99.90
2018-02-18T02:47:22.412Z,99.90
2018-02-18T02:49:49.096Z,99.90
2018-02-18T02:52:15.103Z,99.90
2018-02-18T02:54:41.056Z,99.90
2018-02-18T02:57:07.024Z,99.90
2018-02-18T02:59:32.973Z,99.90
2018-02-18T03:01:58.969Z,99.90
2018-02-18T03:04:24.916Z,99.90
2018-02-18T03:06:50.908Z,99.90
2018-02-18T03:09:16.849Z,99.90
2018-02-18T03:11:43.528Z,99.90
2018-02-18T03:14:09.539Z,99.90
2018-02-18T03:16:36.404Z,99.90
2018-02-18T03:19:03.128Z,99.90
2018-02-18T03:21:29.089Z,99.90
2018-02-18T03:23:55.080Z,99.90
2018-02-18T03:26:21.017Z,99.90
2018-02-18T03:28:46.952Z,99.90
2018-02-18T03:31:12.929Z,99.90
2018-02-18T03:33:39.654Z,99.90
2018-02-18T03:36:05.636Z,99.90
2018-02-18T03:38:31.599Z,99.90
2018-02-18T03:40:57.576Z,99.90
2018-02-18T03:43:23.532Z,99.90
2018-02-18T03:45:50.257Z,99.90
2018-02-18T03:48:16.226Z,99.90
2018-02-18T03:50:42.172Z,99.90
2018-02-18T03:53:08.175Z,99.90
2018-02-18T03:55:34.952Z,99.90
2018-02-18T03:58:00.949Z,99.90
2018-02-18T04:00:27.646Z,99.90
2018-02-18T04:02:53.624Z,99.90
2018-02-18T04:05:19.569Z,99.90
2018-02-18T04:07:45.536Z,99.90
2018-02-18T04:10:12.221Z,99.90
2018-02-18T04:12:38.196Z,99.90
2018-02-18T04:15:04.184Z,99.90
2018-02-18T04:17:30.216Z,99.90
2018-02-18T04:19:56.192Z,99.90
2018-02-18T04:22:22.164Z,99.90
2018-02-18T04:24:48.845Z,99.90
2018-02-18T04:27:14.824Z,99.90
2018-02-18T04:29:40.768Z,99.90
2018-02-18T04:32:06.708Z,99.90
2018-02-18T04:34:32.700Z,99.90
2018-02-18T04:36:58.688Z,99.90
2018-02-18T04:39:25.465Z,99.90
2018-02-18T04:41:51.408Z,99.90
2018-02-18T04:44:17.404Z,99.90
2018-02-18T04:46:43.403Z,99.90
2018-02-18T04:49:09.340Z,99.90
2018-02-18T04:51:35.316Z,99.90
2018-02-18T04:54:01.260Z,99.90
2018-02-18T04:56:28.000Z,99.90
2018-02-18T04:58:54.002Z,99.90
2018-02-18T05:01:19.964Z,99.90
2018-02-18T05:03:45.912Z,99.90
2018-02-18T05:06:11.885Z,99.90
2018-02-18T05:08:37.828Z,99.90
2018-02-18T05:11:03.819Z,99.90
2018-02-18T05:13:29.904Z,99.90
2018-02-18T05:15:55.898Z,99.90
2018-02-18T05:18:22.593Z,99.90
2018-02-18T05:20:48.564Z,99.90
2018-02-18T05:23:14.644Z,99.90
2018-02-18T05:25:40.592Z,99.90
2018-02-18T05:28:06.565Z,99.90
2018-02-18T05:30:32.535Z,99.90
2018-02-18T05:32:59.275Z,99.90
2018-02-18T05:35:25.248Z,99.90
2018-02-18T05:37:51.240Z,99.90
2018-02-18T05:40:17.928Z,99.90
2018-02-18T05:42:43.879Z,99.90
2018-02-18T05:45:09.954Z,99.90
2018-02-18T05:47:35.931Z,99.90
2018-02-18T05:50:02.659Z,99.90
2018-02-18T05:52:28.788Z,99.90
2018-02-18T05:54:55.548Z,99.90
2018-02-18T05:57:21.530Z,99.90
2018-02-18T05:59:47.475Z,99.90
2018-02-18T06:02:13.461Z,99.90
2018-02-18T06:04:39.424Z,99.90
2018-02-18T06:07:05.428Z,99.90
2018-02-18T06:09:31.380Z,99.90
2018-02-18T06:11:57.324Z,99.90
2018-02-18T06:14:24.052Z,99.90
2018-02-18T06:16:50.016Z,99.90
2018-02-18T06:19:15.992Z,99.90
2018-02-18T06:21:41.980Z,99.90
2018-02-18T06:24:08.696Z,99.90
2018-02-18T06:26:34.678Z,99.90
2018-02-18T06:29:00.641Z,99.90
2018-02-18T06:31:26.602Z,99.90
2018-02-18T06:33:52.577Z,99.90
2018-02-18T06:36:19.259Z,99.90
2018-02-18T06:38:45.248Z,99.90
2018-02-18T06:41:11.198Z,99.90
2018-02-18T06:43:37.939Z,99.90
2018-02-18T06:46:03.899Z,99.90
2018-02-18T06:48:29.917Z,99.90
2018-02-18T06:50:55.919Z,99.90
2018-02-18T06:53:21.896Z,99.90
2018-02-18T06:55:48.716Z,99.90
2018-02-18T06:58:14.708Z,99.90
2018-02-18T07:00:40.685Z,99.90
2018-02-18T07:03:06.638Z,99.90
2018-02-18T07:05:33.356Z,99.90
2018-02-18T07:07:59.312Z,99.90
2018-02-18T07:10:25.289Z,99.90
2018-02-18T07:12:51.246Z,99.90
2018-02-18T07:15:17.253Z,99.90
2018-02-18T07:17:43.937Z,99.90
2018-02-18T07:20:09.926Z,99.90
2018-02-18T07:22:35.872Z,99.90
2018-02-18T07:25:02.626Z,99.90
2018-02-18T07:27:29.333Z,99.90
2018-02-18T07:29:55.312Z,99.90
2018-02-18T07:32:22.000Z,99.90
2018-02-18T07:34:47.989Z,99.90
2018-02-18T07:37:13.940Z,99.90
2018-02-18T07:39:40.632Z,99.90
2018-02-18T07:42:07.148Z,99.90
2018-02-18T07:44:33.478Z,99.90
2018-02-18T07:47:00.269Z,99.90
2018-02-18T07:49:26.221Z,99.90
2018-02-18T07:51:52.208Z,99.90
2018-02-18T07:54:18.896Z,99.90
2018-02-18T07:56:44.842Z,99.90
2018-02-18T07:59:10.828Z,99.90
2018-02-18T08:01:37.513Z,99.90
2018-02-18T08:04:03.494Z,99.90
2018-02-18T08:06:29.725Z,99.90
2018-02-18T08:08:55.701Z,99.90
2018-02-18T08:11:22.384Z,99.90
2018-02-18T08:13:48.361Z,99.90
2018-02-18T08:16:14.384Z,99.90
2018-02-18T08:18:40.330Z,99.90
2018-02-18T08:21:06.790Z,99.90
2018-02-18T08:23:33.601Z,99.90
2018-02-18T08:25:59.584Z,99.90
2018-02-18T08:28:25.553Z,99.90
2018-02-18T08:30:51.544Z,99.90
2018-02-18T08:33:17.568Z,99.90
2018-02-18T08:35:43.535Z,99.90
2018-02-18T08:38:09.580Z,99.90
2018-02-18T08:40:35.580Z,99.90
2018-02-18T08:43:01.540Z,99.90
2018-02-18T08:45:27.533Z,99.90
2018-02-18T08:47:54.265Z,99.90
2018-02-18T08:50:20.252Z,99.90
2018-02-18T08:52:46.236Z,99.90
2018-02-18T08:55:12.240Z,99.90
2018-02-18T08:57:38.248Z,99.90
2018-02-18T09:00:04.244Z,99.90
2018-02-18T09:02:30.233Z,99.90
2018-02-18T09:04:56.225Z,99.90
2018-02-18T09:07:22.213Z,99.90
2018-02-18T09:09:48.153Z,99.90
2018-02-18T09:12:14.161Z,99.90
2018-02-18T09:14:40.128Z,99.90
2018-02-18T09:17:06.174Z,99.90
2018-02-18T09:19:32.268Z,99.90
2018-02-18T09:21:58.248Z,99.90
2018-02-18T09:24:24.205Z,99.90
2018-02-18T09:26:50.197Z,99.90
2018-02-18T09:29:16.182Z,99.90
2018-02-18T09:31:42.156Z,99.90
2018-02-18T09:34:08.196Z,99.90
2018-02-18T09:36:34.184Z,99.90
2018-02-18T09:39:00.201Z,99.90
2018-02-18T09:41:26.150Z,99.90
2018-02-18T09:43:52.134Z,99.90
2018-02-18T09:46:18.162Z,99.90
2018-02-18T09:48:44.124Z,99.90
2018-02-18T09:51:10.156Z,99.90
2018-02-18T09:53:36.170Z,99.90
2018-02-18T09:56:02.164Z,99.90
2018-02-18T09:58:28.156Z,99.90
2018-02-18T10:00:54.164Z,99.90
2018-02-18T10:03:20.857Z,99.90
2018-02-18T10:05:46.852Z,99.90
2018-02-18T10:08:13.589Z,99.90
2018-02-18T10:10:39.579Z,99.90
2018-02-18T10:13:05.699Z,99.90
2018-02-18T10:15:31.671Z,99.90
2018-02-18T10:17:57.673Z,99.90
2018-02-18T10:20:23.674Z,99.90
2018-02-18T10:22:49.742Z,99.90
2018-02-18T10:25:15.753Z,99.90
2018-02-18T10:27:41.766Z,99.90
2018-02-18T10:30:07.793Z,99.90
2018-02-18T10:32:33.814Z,99.90
2018-02-18T10:34:59.886Z,99.90
2018-02-18T10:37:26.002Z,99.90
2018-02-18T10:39:52.047Z,99.90
2018-02-18T10:42:18.216Z,99.90
2018-02-18T10:44:44.290Z,99.90
2018-02-18T10:47:10.323Z,99.90
2018-02-18T10:49:36.404Z,99.90
2018-02-18T10:52:02.453Z,99.90
2018-02-18T10:54:28.418Z,99.90
2018-02-18T10:56:55.162Z,99.90
2018-02-18T10:59:21.874Z,99.90
2018-02-18T11:01:47.921Z,99.90
2018-02-18T11:04:14.027Z,99.90
2018-02-18T11:06:40.105Z,99.90
2018-02-18T11:09:06.122Z,99.90
2018-02-18T11:11:32.143Z,99.90
2018-02-18T11:14:05.116Z,99.90
2018-02-18T11:16:31.890Z,99.90
2018-02-18T11:18:57.881Z,99.90
2018-02-18T11:21:23.975Z,99.90
2018-02-18T11:23:50.030Z,99.90
2018-02-18T11:26:16.042Z,99.90
2018-02-18T11:28:42.044Z,99.90
2018-02-18T11:31:08.114Z,98.50
2018-02-18T11:33:34.102Z,99.90
2018-02-18T11:36:00.212Z,98.50
2018-02-18T11:38:26.141Z,95.40
2018-02-18T11:40:52.157Z,92.80
2018-02-18T11:43:18.241Z,91.30
2018-02-18T11:45:44.301Z,91.50
2018-02-18T11:48:10.390Z,93.10
2018-02-18T11:50:36.439Z,94.40
2018-02-18T11:53:02.397Z,92.30
2018-02-18T11:55:30.479Z,91.80
2018-02-18T11:57:56.470Z,91.70
2018-02-18T12:00:22.546Z,90.50
2018-02-18T12:02:48.523Z,90.30
2018-02-18T12:05:14.507Z,90.20
2018-02-18T12:07:40.504Z,90.60
2018-02-18T12:10:06.534Z,91.80
2018-02-18T12:12:32.501Z,89.50
2018-02-18T12:14:58.534Z,89.60
2018-02-18T12:17:24.530Z,86.20
2018-02-18T12:19:51.302Z,84.50
2018-02-18T12:22:17.298Z,84.40
2018-02-18T12:24:44.033Z,84.70
2018-02-18T12:27:10.036Z,84.60
2018-02-18T12:29:36.047Z,83.80
2018-02-18T12:32:02.787Z,85.00
2018-02-18T12:34:29.485Z,80.90
2018-02-18T12:36:55.482Z,80.90
2018-02-18T12:39:21.450Z,79.80
2018-02-18T12:41:47.466Z,81.60
2018-02-18T12:44:14.307Z,79.90
2018-02-18T12:46:41.027Z,81.80
2018-02-18T12:49:06.977Z,81.80
2018-02-18T12:51:32.987Z,79.40
2018-02-18T12:53:58.942Z,79.70
2018-02-18T12:56:25.030Z,79.40
2018-02-18T12:58:51.123Z,79.40
2018-02-18T13:01:17.094Z,80.40
2018-02-18T13:03:43.154Z,81.20
2018-02-18T13:06:09.193Z,81.90
2018-02-18T13:08:35.212Z,80.90
2018-02-18T13:11:01.223Z,84.40
2018-02-18T13:13:27.925Z,83.40
2018-02-18T13:15:53.958Z,83.40
2018-02-18T13:18:20.006Z,85.50
2018-02-18T13:20:45.971Z,85.60
2018-02-18T13:23:11.933Z,85.90
2018-02-18T13:25:38.675Z,85.70
2018-02-18T13:28:12.414Z,83.50
2018-02-18T13:30:38.371Z,83.40
2018-02-18T13:33:04.361Z,82.00
2018-02-18T13:35:31.065Z,85.20
2018-02-18T13:37:57.082Z,85.20
2018-02-18T13:40:23.086Z,86.70
2018-02-18T13:42:49.788Z,86.40
2018-02-18T13:45:15.802Z,86.30
2018-02-18T13:47:41.754Z,85.70
2018-02-18T13:50:07.758Z,85.80
2018-02-18T13:52:34.492Z,86.70
2018-02-18T13:55:00.450Z,86.60
2018-02-18T13:57:26.496Z,87.10
2018-02-18T13:59:52.506Z,87.10
2018-02-18T14:02:19.255Z,88.60
2018-02-18T14:04:45.230Z,88.60
2018-02-18T14:07:11.218Z,85.60
2018-02-18T14:09:37.170Z,84.00
2018-02-18T14:12:03.900Z,83.60
2018-02-18T14:14:29.864Z,82.60
2018-02-18T14:16:56.585Z,83.80
2018-02-18T14:19:22.615Z,83.80
2018-02-18T14:21:48.610Z,84.60
2018-02-18T14:24:14.622Z,85.20
2018-02-18T14:26:41.323Z,84.00
2018-02-18T14:29:07.334Z,84.50
2018-02-18T14:31:33.285Z,82.70
2018-02-18T14:33:59.310Z,84.80
2018-02-18T14:36:25.265Z,84.10
2018-02-18T14:38:58.222Z,83.50
2018-02-18T14:41:37.374Z,84.90
2018-02-18T14:44:16.645Z,85.80
2018-02-18T14:46:55.006Z,85.80
2018-02-18T14:49:33.471Z,86.60
2018-02-18T14:52:12.662Z,84.80
2018-02-18T14:57:38.434Z,85.20
2018-02-18T15:00:04.434Z,85.60
2018-02-18T15:02:31.177Z,86.50
2018-02-18T15:04:57.891Z,85.60
2018-02-18T15:07:23.956Z,85.60
2018-02-18T15:09:49.897Z,87.10
2018-02-18T15:12:16.638Z,88.10
2018-02-18T15:14:42.607Z,88.10
2018-02-18T15:17:08.651Z,87.90
2018-02-18T15:19:34.619Z,88.50
2018-02-18T15:22:00.638Z,88.90
2018-02-18T15:24:26.626Z,88.00
2018-02-18T15:26:52.641Z,87.30
2018-02-18T15:29:18.610Z,89.00
2018-02-18T15:31:45.395Z,88.10
2018-02-18T15:34:11.543Z,88.10
2018-02-18T15:36:37.554Z,89.30
2018-02-18T15:39:03.578Z,91.10
2018-02-18T15:41:30.298Z,90.30
2018-02-18T15:43:56.332Z,90.20
2018-02-18T15:46:22.331Z,89.90
2018-02-18T15:48:48.306Z,90.30
2018-02-18T15:51:14.308Z,91.20
2018-02-18T15:53:40.329Z,91.10
2018-02-18T15:56:06.358Z,91.50
2018-02-18T15:58:33.058Z,92.70
2018-02-18T16:00:59.053Z,92.70
2018-02-18T16:03:25.015Z,92.40
2018-02-18T16:05:50.983Z,92.30
2018-02-18T16:08:17.763Z,91.90
2018-02-18T16:10:43.745Z,91.90
2018-02-18T16:13:09.754Z,91.00
2018-02-18T16:15:35.769Z,91.20
2018-02-18T16:18:01.743Z,91.70
2018-02-18T16:20:27.709Z,91.90
2018-02-18T16:22:53.794Z,92.80
2018-02-18T16:25:19.758Z,92.60
2018-02-18T16:27:45.722Z,92.60
2018-02-18T16:30:11.721Z,92.70
2018-02-18T16:32:37.708Z,93.40
2018-02-18T16:35:03.685Z,93.30
2018-02-18T16:37:29.685Z,94.20
2018-02-18T16:39:55.711Z,94.10
2018-02-18T16:42:21.727Z,93.70
2018-02-18T16:44:47.726Z,93.80
2018-02-18T16:47:13.746Z,93.30
2018-02-18T16:49:39.747Z,93.80
2018-02-18T16:52:05.781Z,94.50
2018-02-18T16:54:31.766Z,94.60
2018-02-18T16:56:57.736Z,95.50
2018-02-18T16:59:23.763Z,96.00
2018-02-18T17:01:49.733Z,96.30
2018-02-18T17:04:15.734Z,96.00
2018-02-18T17:06:41.712Z,96.20
2018-02-18T17:09:07.694Z,95.90
2018-02-18T17:11:33.713Z,96.00
2018-02-18T17:14:00.445Z,95.90
2018-02-18T17:16:26.470Z,95.90
2018-02-18T17:18:52.609Z,95.40
2018-02-18T17:21:18.710Z,95.90
2018-02-18T17:23:44.718Z,95.60
2018-02-18T17:26:10.715Z,96.00
2018-02-18T17:28:36.727Z,95.10
2018-02-18T17:31:02.721Z,96.00
2018-02-18T17:33:29.422Z,96.50
2018-02-18T17:36:02.315Z,96.50
2018-02-18T17:38:28.308Z,96.20
2018-02-18T17:40:55.065Z,96.40
2018-02-18T17:43:21.777Z,96.40
2018-02-18T17:45:47.761Z,96.30
2018-02-18T17:48:14.490Z,97.90
2018-02-18T17:50:40.501Z,97.90
2018-02-18T17:53:06.493Z,98.10
2018-02-18T17:55:32.470Z,98.30
2018-02-18T17:57:58.494Z,98.30
2018-02-18T18:00:24.465Z,99.00
2018-02-18T18:02:50.508Z,99.30
2018-02-18T18:05:16.482Z,99.10
2018-02-18T18:07:43.257Z,99.90
2018-02-18T18:10:09.222Z,99.90
2018-02-18T18:12:35.227Z,99.90
2018-02-18T18:15:01.198Z,99.90
2018-02-18T18:17:27.153Z,99.90
2018-02-18T18:19:54.102Z,99.90
2018-02-18T18:22:20.107Z,99.90
2018-02-18T18:24:46.093Z,99.90
2018-02-18T18:27:13.397Z,99.90
2018-02-18T18:29:39.400Z,99.90
2018-02-18T18:32:05.431Z,99.90
2018-02-18T18:34:32.170Z,99.90
2018-02-18T18:36:58.133Z,99.90
2018-02-18T18:39:24.126Z,99.90
2018-02-18T18:41:50.925Z,99.90
2018-02-18T18:44:16.943Z,99.90
2018-02-18T18:46:43.646Z,99.90
2018-02-18T18:49:09.784Z,99.90
2018-02-18T18:51:35.826Z,99.90
2018-02-18T18:54:01.856Z,99.90
2018-02-18T18:56:27.841Z,99.90
2018-02-18T18:58:54.574Z,99.90
2018-02-18T19:01:20.634Z,99.90
2018-02-18T19:03:47.358Z,99.90
2018-02-18T19:06:13.360Z,99.90
2018-02-18T19:08:39.340Z,99.90
2018-02-18T19:11:05.304Z,99.90
2018-02-18T19:13:32.041Z,99.90
2018-02-18T19:15:58.770Z,99.90
2018-02-18T19:18:24.834Z,99.90
2018-02-18T19:20:51.610Z,99.90
2018-02-18T19:23:17.579Z,99.90
2018-02-18T19:25:43.671Z,99.90
2018-02-18T19:28:09.673Z,99.90
2018-02-18T19:30:35.636Z,99.90
2018-02-18T19:33:02.385Z,99.90
2018-02-18T19:35:29.114Z,99.90
2018-02-18T19:38:02.210Z,99.90
2018-02-18T19:40:28.194Z,99.90
2018-02-18T19:42:54.928Z,99.90
2018-02-18T19:45:20.941Z,99.90
2018-02-18T19:47:46.930Z,99.90
2018-02-18T19:50:12.930Z,99.90
2018-02-18T19:52:39.677Z,99.90
2018-02-18T19:55:05.682Z,99.90
2018-02-18T19:57:31.707Z,99.90
2018-02-18T19:59:57.673Z,99.90
2018-02-18T20:02:23.754Z,99.90
2018-02-18T20:04:49.725Z,99.90
2018-02-18T20:07:15.724Z,99.90
2018-02-18T20:09:42.477Z,99.90
2018-02-18T20:12:09.242Z,99.90
2018-02-18T20:14:35.238Z,99.90
2018-02-18T20:17:01.951Z,99.90
2018-02-18T20:19:27.921Z,99.90
2018-02-18T20:21:53.884Z,99.90
2018-02-18T20:24:20.666Z,99.90
2018-02-18T20:26:46.625Z,99.90
2018-02-18T20:29:12.619Z,99.90
2018-02-18T20:31:39.358Z,99.90
2018-02-18T20:34:05.306Z,99.90
2018-02-18T20:36:31.294Z,99.90
2018-02-18T20:38:57.257Z,99.90
2018-02-18T20:41:23.488Z,99.90
2018-02-18T20:43:49.490Z,99.90
2018-02-18T20:46:15.510Z,99.90
2018-02-18T20:48:41.490Z,99.90
2018-02-18T20:51:07.486Z,99.90
2018-02-18T20:53:34.476Z,99.90
2018-02-18T20:56:00.582Z,99.90
2018-02-18T20:58:26.651Z,99.90
2018-02-18T21:00:52.711Z,99.90
2018-02-18T21:03:18.772Z,99.90
2018-02-18T21:05:45.752Z,99.90
2018-02-18T21:08:11.747Z,99.90
2018-02-18T21:10:37.819Z,99.90
2018-02-18T21:13:03.839Z,99.90
2018-02-18T21:15:29.818Z,99.90
2018-02-18T21:18:02.907Z,99.90
2018-02-18T21:20:28.875Z,99.90
2018-02-18T21:22:54.938Z,99.90
2018-02-18T21:25:20.941Z,99.90
2018-02-18T21:27:46.948Z,99.90
2018-02-18T21:30:12.910Z,99.90
2018-02-18T21:32:38.889Z,99.90
2018-02-18T21:35:06.487Z,99.90
2018-02-18T21:37:33.268Z,99.90
2018-02-18T21:39:59.342Z,99.90
2018-02-18T21:42:26.092Z,99.90
2018-02-18T21:44:52.108Z,99.90
2018-02-18T21:47:18.198Z,99.90
2018-02-18T21:49:44.901Z,99.90
2018-02-18T21:52:10.862Z,99.90
2018-02-18T21:54:36.862Z,99.90
2018-02-18T21:57:02.919Z,99.90
2018-02-18T21:59:28.914Z,99.90
2018-02-18T22:01:55.961Z,99.90
2018-02-18T22:04:21.974Z,99.90
2018-02-18T22:06:48.836Z,99.90
2018-02-18T22:09:14.786Z,99.90
2018-02-18T22:11:41.481Z,99.90
2018-02-18T22:14:07.479Z,99.90
2018-02-18T22:16:33.483Z,99.90
2018-02-18T22:18:59.496Z,99.90
2018-02-18T22:21:25.501Z,99.90
2018-02-18T22:23:51.524Z,99.90
2018-02-18T22:26:18.269Z,99.90
2018-02-18T22:28:44.218Z,99.90
2018-02-18T22:31:10.922Z,99.90
2018-02-18T22:33:36.899Z,99.90
2018-02-18T22:36:03.630Z,99.90
2018-02-18T22:38:29.585Z,99.90
2018-02-18T22:40:56.330Z,99.90
2018-02-18T22:43:22.322Z,99.90
2018-02-18T22:45:48.325Z,99.90
2018-02-18T22:48:15.034Z,99.90
2018-02-18T22:50:41.035Z,99.90
2018-02-18T22:53:06.988Z,99.90
2018-02-18T22:55:32.955Z,99.90
2018-02-18T22:57:58.933Z,99.90
2018-02-18T23:00:24.966Z,99.90
2018-02-18T23:02:50.945Z,99.90
2018-02-18T23:05:23.052Z,99.90
2018-02-18T23:07:49.777Z,99.90
2018-02-18T23:10:15.732Z,99.90
2018-02-18T23:12:42.544Z,99.90
2018-02-18T23:15:08.550Z,99.90
2018-02-18T23:17:35.261Z,99.90
2018-02-18T23:20:01.255Z,99.90
2018-02-18T23:22:27.205Z,99.90
2018-02-18T23:24:53.189Z,99.90
2018-02-18T23:27:19.154Z,99.90
2018-02-18T23:29:45.897Z,99.90
2018-02-18T23:32:12.634Z,99.90
2018-02-18T23:34:38.649Z,99.90
2018-02-18T23:37:04.605Z,99.90
2018-02-18T23:39:30.582Z,99.90
2018-02-18T23:41:56.565Z,99.90
2018-02-18T23:44:22.656Z,99.90
2018-02-18T23:46:48.702Z,99.90
2018-02-18T23:49:14.690Z,99.90
2018-02-18T23:51:40.734Z,99.90
2018-02-18T23:54:06.691Z,99.90
2018-02-18T23:56:32.693Z,99.90
2018-02-18T23:58:59.473Z,99.90
